Atlantic - Newfoundland: Past 24 Hour Conditions

 

St. John's Int'l Airport

05:30 PM NST 26 November 2014
This table is a summary of hourly weather conditions for the past 24 hours.
Date / Time
(NST)
Wind(knots) Conditions Visibility(km) Pressure(kPa) Air tempC) Relative humidity(%) Dew pointC)
26 November 2014
17:30 W 16 Cloudy 24 101.8 5 77 1
16:30 W 13 gust 18 Mostly Cloudy 24 101.7 5 73 1
15:30 W 17 Mostly Cloudy 24 101.6 5 74 1
14:30 W 17 gust 26 Cloudy 24 101.5 6 71 1
13:30 W 21 Cloudy 24 101.4 6 68 0
12:30 W 21 gust 27 Cloudy 24 101.3 6 69 0
11:30 W 19 gust 27 Mostly Cloudy 24 101.3 6 72 1
10:30 W 23 gust 31 Mostly Cloudy 24 101.3 6 71 1
9:30 W 27 gust 35 Mostly Cloudy 24 101.1 6 73 1
8:30 W 25 gust 32 Mostly Cloudy 24 101.0 6 77 2
7:30 W 24 gust 33 Mostly Cloudy 24 100.9 6 83 3
6:30 W 21 gust 32 Partly Cloudy 24 100.9 7 87 5
5:30 W 22 gust 28 Partly Cloudy 24 100.8 7 90 6
4:30 W 21 gust 29 Mainly Clear 24 100.7 7 95 7
3:30 W 25 gust 33 Mainly Clear 24 100.6 8 94 7
2:30 W 22 gust 27 Mainly Clear 24 100.6 8 94 7
1:30 W 20 gust 29 Mainly Clear 24 100.6 8 95 7
0:30 W 22 gust 28 Mainly Clear 24 100.5 9 93 8
25 November 2014
23:30 W 19 gust 25 Mainly Clear 24 100.6 9 96 8
22:30 WSW 23 gust 32 Mainly Clear 24 100.5 9 96 9
21:30 WSW 19 gust 29 Mainly Clear 24 100.6 10 94 9
20:30 WSW 26 gust 34 Mainly Clear 24 100.6 10 95 9
19:30 WSW 28 gust 41 Partly Cloudy 24 100.6 12 93 10
18:30 WSW 26 gust 35 Mostly Cloudy 24 100.6 13 96 12
17:30 WSW 25 gust 35 Mostly Cloudy 24 100.6 12 95 11
 
Map of Atlantic - Newfoundland marine weather areas Southwestern Grand Banks - 44138 Banquereau - 44139 Tail of the Bank - 44140 Nickerson Bank - 44251 Northeast Burgeo Bank - 44255 Blanc-Sablon Airport Cap Whittle Chevery Natashquan Airport Heath Point Miscou Island Grand Étang Ingonish Beach North Mountain St.Paul Island J.A. Douglas McCurdy Sydney Airport Charlottetown Airport East Point North Cape Argentia Bonavista Burgeo Cape Race Corner Brook Daniel's Harbour Englee Ferolle Point La Scie Port aux Basques Rocky Harbour Sagona Island St. Anthony Airport St. John's Int'l Airport St. Lawrence Stephenville Airport Twillingate Winterland Wreckhouse Cartwright Airport Mary's Harbour Grates Cove Pool's Island Marticot Island Long Pond Îles de la Madeleine Airport
Legend: buoyBuoy land stationLand Station